createdAt,value
2018-01-26T00:01:05.823Z,8.30
2018-01-26T00:03:35.086Z,8.30
2018-01-26T00:06:04.365Z,8.30
2018-01-26T00:08:33.633Z,8.40
2018-01-26T00:11:02.869Z,8.50
2018-01-26T00:13:32.112Z,8.50
2018-01-26T00:16:02.130Z,8.60
2018-01-26T00:18:31.380Z,8.60
2018-01-26T00:21:00.825Z,8.60
2018-01-26T00:23:30.848Z,8.50
2018-01-26T00:26:00.250Z,8.50
2018-01-26T00:28:29.496Z,8.50
2018-01-26T00:30:58.730Z,8.50
2018-01-26T00:33:27.981Z,8.30
2018-01-26T00:35:57.225Z,8.30
2018-01-26T00:38:26.473Z,8.30
2018-01-26T00:40:55.728Z,8.30
2018-01-26T00:43:24.977Z,8.30
2018-01-26T00:45:54.988Z,8.30
2018-01-26T00:48:24.226Z,8.30
2018-01-26T00:50:53.513Z,8.40
2018-01-26T00:53:22.721Z,8.40
2018-01-26T00:55:51.969Z,8.40
2018-01-26T00:58:21.968Z,8.40
2018-01-26T01:00:51.213Z,8.40
2018-01-26T01:03:20.463Z,8.40
2018-01-26T01:05:49.712Z,8.30
2018-01-26T01:08:18.960Z,8.30
2018-01-26T01:10:48.234Z,8.30
2018-01-26T01:13:17.490Z,8.30
2018-01-26T01:15:46.745Z,8.30
2018-01-26T01:18:15.998Z,8.30
2018-01-26T01:20:45.997Z,8.30
2018-01-26T01:23:16.824Z,8.30
2018-01-26T01:25:46.837Z,8.30
2018-01-26T01:28:16.084Z,8.30
2018-01-26T01:30:45.345Z,8.30
2018-01-26T01:33:14.588Z,8.30
2018-01-26T01:35:44.055Z,8.20
2018-01-26T01:38:13.266Z,8.20
2018-01-26T01:40:42.492Z,8.20
2018-01-26T01:43:11.746Z,8.20
2018-01-26T01:45:41.032Z,8.20
2018-01-26T01:48:10.236Z,8.20
2018-01-26T01:50:39.457Z,8.20
2018-01-26T01:53:08.757Z,8.10
2018-01-26T01:55:37.944Z,8.10
2018-01-26T01:58:07.182Z,8.00
2018-01-26T02:00:36.409Z,8.00
2018-01-26T02:03:05.660Z,8.00
2018-01-26T02:05:34.915Z,8.00
2018-01-26T02:08:04.141Z,8.00
2018-01-26T02:10:33.375Z,8.10
2018-01-26T02:13:03.492Z,8.10
2018-01-26T02:15:33.517Z,8.10
2018-01-26T02:18:02.771Z,8.00
2018-01-26T02:20:31.997Z,8.10
2018-01-26T02:23:01.232Z,8.00
2018-01-26T02:25:30.489Z,8.00
2018-01-26T02:27:59.727Z,7.90
2018-01-26T02:30:29.740Z,7.80
2018-01-26T02:32:58.971Z,7.80
2018-01-26T02:35:28.232Z,7.80
2018-01-26T02:37:57.510Z,7.80
2018-01-26T02:40:26.757Z,7.70
2018-01-26T02:42:55.985Z,7.70
2018-01-26T02:45:25.224Z,7.60
2018-01-26T02:47:54.489Z,7.60
2018-01-26T02:50:23.817Z,7.50
2018-01-26T02:52:53.060Z,7.50
2018-01-26T02:55:22.459Z,7.50
2018-01-26T02:57:51.699Z,7.50
2018-01-26T03:00:20.953Z,7.50
2018-01-26T03:02:50.258Z,7.50
2018-01-26T03:05:19.469Z,7.50
2018-01-26T03:07:49.504Z,7.60
2018-01-26T03:10:18.765Z,7.60
2018-01-26T03:12:48.005Z,7.60
2018-01-26T03:15:17.232Z,7.50
2018-01-26T03:17:46.542Z,7.40
2018-01-26T03:20:15.783Z,7.40
2018-01-26T03:22:45.261Z,7.50
2018-01-26T03:25:14.522Z,7.40
2018-01-26T03:27:43.770Z,7.40
2018-01-26T03:30:13.765Z,7.40
2018-01-26T03:32:43.008Z,7.40
2018-01-26T03:35:12.427Z,7.40
2018-01-26T03:37:41.658Z,7.40
2018-01-26T03:40:10.911Z,7.30
2018-01-26T03:42:40.141Z,7.40
2018-01-26T03:45:09.388Z,7.40
2018-01-26T03:47:38.658Z,7.40
2018-01-26T03:50:07.892Z,7.40
2018-01-26T03:52:40.704Z,7.20
2018-01-26T03:55:10.148Z,7.20
2018-01-26T03:57:39.405Z,7.20
2018-01-26T04:00:08.777Z,7.10
2018-01-26T04:02:38.797Z,7.10
2018-01-26T04:05:08.027Z,7.00
2018-01-26T04:07:37.286Z,6.90
2018-01-26T04:10:06.518Z,6.90
2018-01-26T04:12:35.892Z,6.90
2018-01-26T04:15:05.167Z,6.90
2018-01-26T04:17:34.400Z,7.00
2018-01-26T04:20:03.641Z,7.10
2018-01-26T04:22:32.880Z,7.10
2018-01-26T04:25:02.120Z,7.00
2018-01-26T04:27:31.348Z,7.00
2018-01-26T04:30:00.593Z,7.10
2018-01-26T04:32:29.825Z,7.00
2018-01-26T04:34:59.110Z,7.10
2018-01-26T04:37:28.403Z,7.10
2018-01-26T04:39:59.132Z,7.10
2018-01-26T04:42:29.348Z,7.20
2018-01-26T04:44:58.617Z,7.20
2018-01-26T04:47:27.849Z,7.20
2018-01-26T04:49:58.600Z,7.20
2018-01-26T04:52:27.834Z,7.20
2018-01-26T04:54:57.087Z,7.30
2018-01-26T04:57:26.357Z,7.20
2018-01-26T04:59:55.609Z,7.30
2018-01-26T05:02:24.842Z,7.30
2018-01-26T05:04:54.263Z,7.30
2018-01-26T05:07:23.880Z,7.40
2018-01-26T05:09:53.122Z,7.40
2018-01-26T05:12:23.147Z,7.30
2018-01-26T05:14:52.390Z,7.30
2018-01-26T05:17:21.638Z,7.30
2018-01-26T05:19:50.879Z,7.30
2018-01-26T05:22:20.132Z,7.20
2018-01-26T05:24:49.370Z,7.20
2018-01-26T05:27:18.641Z,7.30
2018-01-26T05:29:47.905Z,7.30
2018-01-26T05:32:17.124Z,7.30
2018-01-26T05:34:46.393Z,7.30
2018-01-26T05:37:15.647Z,7.30
2018-01-26T05:39:45.641Z,7.40
2018-01-26T05:42:16.497Z,7.30
2018-01-26T05:44:46.506Z,7.30
2018-01-26T05:47:15.777Z,7.30
2018-01-26T05:49:45.111Z,7.30
2018-01-26T05:52:14.336Z,7.30
2018-01-26T05:54:43.584Z,7.30
2018-01-26T05:57:13.001Z,7.20
2018-01-26T05:59:42.232Z,7.20
2018-01-26T06:02:12.229Z,7.10
2018-01-26T06:04:42.260Z,7.10
2018-01-26T06:07:12.252Z,7.10
2018-01-26T06:09:41.493Z,7.10
2018-01-26T06:12:10.740Z,7.10
2018-01-26T06:14:39.973Z,7.00
2018-01-26T06:17:09.993Z,7.10
2018-01-26T06:19:39.996Z,7.10
2018-01-26T06:22:09.213Z,7.10
2018-01-26T06:24:39.229Z,7.10
2018-01-26T06:27:08.521Z,7.10
2018-01-26T06:29:39.289Z,7.10
2018-01-26T06:32:08.680Z,7.10
2018-01-26T06:34:37.961Z,7.10
2018-01-26T06:37:07.491Z,7.00
2018-01-26T06:39:37.491Z,7.10
2018-01-26T06:42:06.731Z,7.10
2018-01-26T06:44:36.018Z,7.10
2018-01-26T06:47:05.214Z,7.00
2018-01-26T06:49:34.461Z,7.00
2018-01-26T06:52:03.688Z,7.00
2018-01-26T06:54:33.883Z,6.90
2018-01-26T06:57:03.121Z,6.90
2018-01-26T06:59:33.133Z,6.80
2018-01-26T07:02:02.375Z,6.80
2018-01-26T07:04:31.633Z,6.80
2018-01-26T07:07:01.656Z,6.80
2018-01-26T07:09:31.045Z,6.80
2018-01-26T07:12:00.310Z,6.80
2018-01-26T07:14:29.568Z,6.80
2018-01-26T07:16:58.850Z,6.70
2018-01-26T07:19:28.868Z,6.60
2018-01-26T07:21:58.294Z,6.60
2018-01-26T07:24:27.541Z,6.70
2018-01-26T07:26:56.832Z,6.70
2018-01-26T07:29:26.042Z,6.70
2018-01-26T07:31:55.297Z,6.70
2018-01-26T07:34:24.520Z,6.80
2018-01-26T07:36:53.761Z,6.80
2018-01-26T07:39:23.024Z,6.70
2018-01-26T07:41:52.256Z,6.80
2018-01-26T07:44:21.501Z,6.80
2018-01-26T07:46:50.744Z,6.90
2018-01-26T07:49:19.984Z,6.80
2018-01-26T07:51:50.008Z,6.80
2018-01-26T07:54:20.019Z,6.90
2018-01-26T07:56:50.114Z,7.00
2018-01-26T07:59:19.361Z,7.00
2018-01-26T08:01:48.597Z,7.00
2018-01-26T08:04:17.857Z,7.00
2018-01-26T08:06:47.124Z,7.10
2018-01-26T08:09:16.387Z,7.10
2018-01-26T08:11:45.636Z,7.20
2018-01-26T08:14:14.866Z,7.20
2018-01-26T08:16:44.119Z,7.20
2018-01-26T08:19:13.393Z,7.30
2018-01-26T08:21:42.650Z,7.30
2018-01-26T08:24:12.656Z,7.40
2018-01-26T08:26:41.918Z,7.40
2018-01-26T08:29:11.167Z,7.50
2018-01-26T08:31:40.459Z,7.70
2018-01-26T08:34:09.717Z,7.90
2018-01-26T08:36:38.969Z,8.00
2018-01-26T08:39:08.214Z,8.20
2018-01-26T08:41:37.458Z,8.40
2018-01-26T08:44:06.714Z,8.50
2018-01-26T08:46:35.951Z,8.50
2018-01-26T08:49:05.202Z,8.70
2018-01-26T08:51:34.498Z,8.90
2018-01-26T08:54:03.750Z,9.10
2018-01-26T08:56:33.596Z,9.40
2018-01-26T08:59:02.987Z,9.60
2018-01-26T09:01:32.997Z,10.20
2018-01-26T09:04:02.257Z,10.20
2018-01-26T09:06:31.588Z,10.60
2018-01-26T09:09:02.358Z,11.30
2018-01-26T09:11:31.597Z,11.40
2018-01-26T09:14:00.856Z,11.80
2018-01-26T09:16:30.107Z,12.10
2018-01-26T09:18:59.377Z,12.50
2018-01-26T09:21:28.809Z,12.80
2018-01-26T09:23:58.073Z,13.10
2018-01-26T09:26:27.319Z,13.60
2018-01-26T09:28:56.601Z,14.10
2018-01-26T09:31:25.869Z,14.50
2018-01-26T09:33:55.130Z,14.80
2018-01-26T09:36:24.409Z,15.10
2018-01-26T09:38:53.657Z,15.70
2018-01-26T09:41:23.695Z,16.50
2018-01-26T09:43:53.008Z,16.50
2018-01-26T09:46:22.297Z,16.70
2018-01-26T09:48:51.556Z,16.80
2018-01-26T09:51:21.749Z,17.10
2018-01-26T09:53:51.036Z,17.10
2018-01-26T09:56:20.502Z,17.10
2018-01-26T09:58:49.757Z,17.30
2018-01-26T10:01:19.059Z,17.30
2018-01-26T10:03:48.293Z,16.70
2018-01-26T10:06:17.730Z,16.20
2018-01-26T10:08:46.989Z,15.40
2018-01-26T10:11:16.246Z,14.30
2018-01-26T10:13:45.510Z,13.70
2018-01-26T10:16:15.523Z,13.30
2018-01-26T10:18:44.796Z,13.30
2018-01-26T10:21:14.045Z,13.20
2018-01-26T10:23:43.312Z,13.10
2018-01-26T10:26:12.549Z,13.10
2018-01-26T10:28:41.844Z,13.10
2018-01-26T10:31:11.079Z,13.10
2018-01-26T10:33:40.331Z,12.70
2018-01-26T10:36:10.353Z,12.40
2018-01-26T10:38:39.600Z,12.30
2018-01-26T10:41:08.857Z,12.20
2018-01-26T10:43:38.873Z,12.00
2018-01-26T10:46:08.137Z,12.00
2018-01-26T10:48:37.396Z,11.90
2018-01-26T10:51:06.689Z,11.80
2018-01-26T10:53:35.944Z,11.70
2018-01-26T10:56:05.208Z,11.60
2018-01-26T10:58:34.450Z,11.60
2018-01-26T11:01:05.310Z,11.70
2018-01-26T11:03:34.506Z,11.70
2018-01-26T11:06:03.759Z,12.00
2018-01-26T11:08:32.997Z,12.20
2018-01-26T11:11:02.281Z,12.50
2018-01-26T11:13:31.518Z,12.90
2018-01-26T11:16:00.801Z,13.10
2018-01-26T11:18:30.081Z,13.00
2018-01-26T11:20:59.351Z,13.10
2018-01-26T11:23:28.625Z,13.40
2018-01-26T11:25:58.641Z,13.60
2018-01-26T11:28:27.914Z,13.60
2018-01-26T11:30:57.216Z,13.30
2018-01-26T11:33:26.477Z,13.10
2018-01-26T11:35:55.741Z,13.00
2018-01-26T11:38:25.752Z,13.00
2018-01-26T11:40:55.054Z,13.00
2018-01-26T11:43:24.313Z,13.20
2018-01-26T11:45:53.561Z,13.30
2018-01-26T11:48:23.577Z,13.20
2018-01-26T11:50:52.972Z,13.20
2018-01-26T11:53:23.100Z,13.00
2018-01-26T11:55:53.107Z,12.90
2018-01-26T11:58:23.129Z,12.80
2018-01-26T12:00:53.158Z,12.80
2018-01-26T12:03:22.413Z,12.80
2018-01-26T12:05:51.727Z,12.70
2018-01-26T12:08:21.010Z,12.60
2018-01-26T12:10:50.249Z,12.50
2018-01-26T12:13:20.468Z,12.20
2018-01-26T12:15:49.941Z,12.20
2018-01-26T12:18:19.217Z,12.00
2018-01-26T12:20:48.581Z,11.80
2018-01-26T12:23:18.622Z,11.60
2018-01-26T12:25:48.750Z,11.50
2018-01-26T12:28:18.802Z,11.40
2018-01-26T12:30:48.055Z,11.40
2018-01-26T12:33:17.431Z,11.40
2018-01-26T12:35:46.712Z,11.30
2018-01-26T12:38:16.112Z,11.20
2018-01-26T12:40:45.424Z,11.20
2018-01-26T12:43:14.621Z,11.10
2018-01-26T12:45:44.713Z,11.10
2018-01-26T12:48:14.526Z,11.00
2018-01-26T12:50:43.781Z,11.00
2018-01-26T12:53:13.050Z,10.90
2018-01-26T12:55:42.301Z,10.80
2018-01-26T12:58:11.592Z,10.80
2018-01-26T13:00:40.840Z,10.80
2018-01-26T13:03:10.117Z,10.80
2018-01-26T13:05:39.376Z,10.80
2018-01-26T13:08:08.643Z,10.80
2018-01-26T13:10:37.904Z,10.80
2018-01-26T13:13:07.157Z,10.60
2018-01-26T13:15:36.441Z,10.50
2018-01-26T13:18:05.731Z,10.40
2018-01-26T13:20:34.988Z,10.20
2018-01-26T13:23:04.204Z,9.90
2018-01-26T13:25:33.485Z,9.80
2018-01-26T13:28:02.741Z,9.60
2018-01-26T13:30:31.992Z,9.60
2018-01-26T13:33:01.242Z,9.70
2018-01-26T13:35:30.583Z,9.70
2018-01-26T13:37:59.850Z,9.70
2018-01-26T13:40:29.073Z,9.70
2018-01-26T13:42:58.389Z,9.90
2018-01-26T13:45:27.649Z,10.10
2018-01-26T13:47:56.923Z,10.10
2018-01-26T13:50:26.957Z,10.40
2018-01-26T13:52:56.307Z,10.30
2018-01-26T13:55:25.537Z,10.40
2018-01-26T13:57:54.801Z,10.60
2018-01-26T14:00:24.064Z,10.70
2018-01-26T14:02:53.301Z,10.80
2018-01-26T14:05:22.633Z,10.90
2018-01-26T14:07:52.667Z,11.00
2018-01-26T14:10:21.929Z,11.00
2018-01-26T14:12:51.460Z,10.90
2018-01-26T14:15:21.482Z,10.80
2018-01-26T14:17:50.894Z,10.80
2018-01-26T14:20:20.171Z,10.80
2018-01-26T14:22:49.555Z,10.80
2018-01-26T14:25:18.820Z,10.80
2018-01-26T14:27:48.104Z,10.80
2018-01-26T14:30:17.338Z,10.70
2018-01-26T14:32:47.817Z,10.70
2018-01-26T14:35:17.909Z,10.70
2018-01-26T14:37:47.173Z,10.70
2018-01-26T14:40:16.414Z,10.70
2018-01-26T14:42:45.673Z,10.60
2018-01-26T14:45:14.940Z,10.60
2018-01-26T14:47:45.057Z,10.20
2018-01-26T14:50:14.332Z,10.20
2018-01-26T14:52:43.606Z,10.10
2018-01-26T14:55:12.861Z,10.00
2018-01-26T14:57:42.101Z,9.90
2018-01-26T15:00:11.442Z,9.80
2018-01-26T15:02:40.678Z,9.80
2018-01-26T15:05:10.689Z,9.70
2018-01-26T15:07:39.965Z,9.70
2018-01-26T15:10:10.695Z,9.70
2018-01-26T15:12:39.991Z,9.70
2018-01-26T15:15:09.201Z,9.70
2018-01-26T15:17:38.692Z,9.70
2018-01-26T15:20:07.965Z,9.70
2018-01-26T15:22:37.211Z,9.60
2018-01-26T15:25:08.217Z,9.50
2018-01-26T15:27:37.677Z,9.50
2018-01-26T15:30:07.826Z,9.50
2018-01-26T15:32:37.086Z,9.50
2018-01-26T15:35:06.346Z,9.50
2018-01-26T15:37:35.597Z,9.40
2018-01-26T15:40:05.609Z,9.30
2018-01-26T15:42:34.863Z,9.30
2018-01-26T15:45:04.121Z,9.30
2018-01-26T15:47:34.196Z,9.20
2018-01-26T15:50:03.426Z,9.20
2018-01-26T15:52:32.692Z,9.10
2018-01-26T15:55:01.933Z,8.90
2018-01-26T15:57:32.049Z,8.60
2018-01-26T16:00:01.346Z,8.60
2018-01-26T16:02:30.601Z,8.40
2018-01-26T16:04:59.908Z,8.30
2018-01-26T16:07:29.357Z,8.30
2018-01-26T16:09:58.648Z,8.30
2018-01-26T16:12:28.118Z,8.30
2018-01-26T16:14:57.400Z,8.40
2018-01-26T16:17:27.431Z,8.50
2018-01-26T16:19:56.756Z,8.40
2018-01-26T16:22:25.989Z,8.50
2018-01-26T16:24:55.248Z,8.50
2018-01-26T16:27:24.513Z,8.50
2018-01-26T16:29:53.785Z,8.50
2018-01-26T16:32:24.533Z,8.30
2018-01-26T16:34:54.050Z,8.30
2018-01-26T16:37:23.322Z,8.30
2018-01-26T16:39:52.611Z,8.20
2018-01-26T16:42:21.945Z,8.10
2018-01-26T16:44:51.371Z,8.00
2018-01-26T16:47:20.667Z,8.00
2018-01-26T16:49:49.931Z,7.90
2018-01-26T16:52:19.223Z,8.00
2018-01-26T16:54:48.479Z,7.90
2018-01-26T16:57:17.763Z,7.90
2018-01-26T16:59:47.742Z,7.80
2018-01-26T17:02:16.997Z,7.80
2018-01-26T17:04:46.401Z,7.80
2018-01-26T17:07:16.448Z,7.80
2018-01-26T17:09:45.833Z,7.80
2018-01-26T17:12:15.148Z,7.80
2018-01-26T17:14:44.723Z,7.70
2018-01-26T17:17:13.974Z,7.60
2018-01-26T17:19:43.366Z,7.50
2018-01-26T17:22:12.629Z,7.50
2018-01-26T17:24:42.064Z,7.50
2018-01-26T17:27:11.330Z,7.60
2018-01-26T17:29:41.351Z,7.70
2018-01-26T17:32:10.650Z,7.70
2018-01-26T17:34:39.866Z,7.70
2018-01-26T17:37:09.120Z,7.70
2018-01-26T17:39:38.596Z,7.60
2018-01-26T17:42:07.901Z,7.60
2018-01-26T17:44:37.170Z,7.50
2018-01-26T17:47:06.418Z,7.40
2018-01-26T17:49:36.485Z,7.20
2018-01-26T17:52:05.739Z,7.20
2018-01-26T17:54:35.037Z,7.10
2018-01-26T17:57:04.268Z,7.10
2018-01-26T17:59:33.529Z,7.10
2018-01-26T18:02:02.808Z,7.10
2018-01-26T18:04:32.052Z,7.00
2018-01-26T18:07:01.314Z,6.90
2018-01-26T18:09:30.562Z,6.90
2018-01-26T18:12:01.898Z,6.70
2018-01-26T18:14:31.194Z,6.70
2018-01-26T18:17:00.488Z,6.70
2018-01-26T18:19:29.747Z,6.60
2018-01-26T18:21:59.037Z,6.60
2018-01-26T18:24:28.308Z,6.60
2018-01-26T18:26:57.609Z,6.60
2018-01-26T18:29:26.863Z,6.50
2018-01-26T18:31:56.094Z,6.60
2018-01-26T18:34:25.353Z,6.60
2018-01-26T18:36:54.588Z,6.50
2018-01-26T18:39:23.859Z,6.40
2018-01-26T18:41:53.109Z,6.40
2018-01-26T18:44:22.380Z,6.40
2018-01-26T18:46:51.637Z,6.40
2018-01-26T18:49:21.713Z,6.50
2018-01-26T18:51:50.964Z,6.50
2018-01-26T18:54:20.239Z,6.50
2018-01-26T18:56:50.900Z,6.50
2018-01-26T18:59:21.001Z,6.50
2018-01-26T19:01:50.998Z,6.40
2018-01-26T19:04:21.762Z,6.40
2018-01-26T19:06:51.006Z,6.40
2018-01-26T19:09:20.288Z,6.40
2018-01-26T19:11:49.537Z,6.40
2018-01-26T19:14:18.964Z,6.40
2018-01-26T19:16:48.324Z,6.40
2018-01-26T19:19:17.563Z,6.40
2018-01-26T19:21:47.467Z,6.40
2018-01-26T19:24:16.754Z,6.40
2018-01-26T19:26:46.054Z,6.40
2018-01-26T19:29:15.325Z,6.50
2018-01-26T19:31:44.677Z,6.50
2018-01-26T19:34:14.078Z,6.50
2018-01-26T19:36:43.325Z,6.40
2018-01-26T19:39:12.602Z,6.40
2018-01-26T19:41:42.278Z,6.40
2018-01-26T19:44:11.533Z,6.40
2018-01-26T19:46:40.781Z,6.50
2018-01-26T19:49:10.561Z,6.40
2018-01-26T19:51:39.806Z,6.40
2018-01-26T19:54:09.441Z,6.30
2018-01-26T19:56:38.716Z,6.30
2018-01-26T19:59:09.477Z,6.20
2018-01-26T20:01:38.793Z,6.20
2018-01-26T20:04:08.161Z,6.20
2018-01-26T20:07:01.558Z,6.10
2018-01-26T20:09:30.823Z,6.10
2018-01-26T20:12:05.884Z,6.10
2018-01-26T20:14:35.165Z,6.00
2018-01-26T20:17:04.897Z,6.00
2018-01-26T20:19:34.165Z,5.90
2018-01-26T20:22:03.801Z,5.90
2018-01-26T20:24:33.183Z,5.90
2018-01-26T20:27:02.506Z,5.90
2018-01-26T20:29:32.153Z,5.90
2018-01-26T20:32:01.421Z,5.90
2018-01-26T20:34:31.501Z,5.80
2018-01-26T20:37:00.757Z,5.80
2018-01-26T20:39:30.455Z,5.80
2018-01-26T20:41:59.725Z,5.80
2018-01-26T20:44:28.992Z,5.80
2018-01-26T20:46:58.224Z,5.80
2018-01-26T20:49:27.702Z,5.80
2018-01-26T20:51:56.970Z,5.70
2018-01-26T20:54:26.250Z,5.70
2018-01-26T20:56:55.485Z,5.70
2018-01-26T20:59:25.995Z,5.60
2018-01-26T21:01:55.256Z,5.60
2018-01-26T21:04:24.908Z,5.50
2018-01-26T21:06:54.142Z,5.50
2018-01-26T21:09:23.816Z,5.50
2018-01-26T21:11:53.813Z,5.50
2018-01-26T21:14:23.069Z,5.50
2018-01-26T21:16:52.316Z,5.50
2018-01-26T21:19:22.390Z,5.50
2018-01-26T21:21:51.629Z,5.40
2018-01-26T21:24:20.929Z,5.40
2018-01-26T21:26:50.177Z,5.40
2018-01-26T21:29:19.440Z,5.40
2018-01-26T21:31:49.473Z,5.40
2018-01-26T21:34:18.870Z,5.40
2018-01-26T21:36:48.897Z,5.30
2018-01-26T21:39:18.504Z,5.30
2018-01-26T21:41:47.879Z,5.40
2018-01-26T21:44:17.199Z,5.40
2018-01-26T21:46:47.218Z,5.30
2018-01-26T21:49:17.241Z,5.40
2018-01-26T21:51:46.505Z,5.30
2018-01-26T21:54:15.950Z,5.40
2018-01-26T21:56:45.971Z,5.40
2018-01-26T21:59:15.242Z,5.40
2018-01-26T22:01:44.517Z,5.30
2018-01-26T22:04:13.789Z,5.40
2018-01-26T22:09:43.043Z,5.50
2018-01-26T22:12:12.307Z,5.50
2018-01-26T22:14:41.573Z,5.50
2018-01-26T22:17:11.588Z,5.60
2018-01-26T22:19:41.625Z,5.60
2018-01-26T22:22:11.026Z,5.60
2018-01-26T22:24:41.234Z,5.70
2018-01-26T22:27:11.107Z,5.70
2018-01-26T22:32:15.694Z,5.80
2018-01-26T22:34:45.138Z,5.80
2018-01-26T22:37:14.388Z,5.80
2018-01-26T22:39:43.668Z,5.80
2018-01-26T22:42:12.930Z,5.90
2018-01-26T22:44:42.197Z,5.90
2018-01-26T22:47:11.439Z,5.90
2018-01-26T22:49:40.694Z,5.90
2018-01-26T22:52:09.937Z,5.90
2018-01-26T22:54:39.197Z,5.90
2018-01-26T22:57:08.482Z,5.90
2018-01-26T22:59:37.742Z,5.90
2018-01-26T23:02:06.998Z,5.90
2018-01-26T23:04:36.253Z,5.90
2018-01-26T23:07:05.509Z,5.90
2018-01-26T23:09:34.968Z,5.90
2018-01-26T23:12:04.224Z,5.90
2018-01-26T23:14:34.229Z,5.90
2018-01-26T23:17:03.493Z,5.90
2018-01-26T23:19:32.752Z,5.90
2018-01-26T23:22:02.776Z,6.10
2018-01-26T23:24:32.027Z,6.00
2018-01-26T23:27:01.360Z,6.10
2018-01-26T23:29:31.209Z,6.10
2018-01-26T23:32:00.440Z,6.20
2018-01-26T23:34:29.702Z,6.10
2018-01-26T23:36:58.950Z,6.00
2018-01-26T23:39:28.208Z,6.00
2018-01-26T23:41:57.443Z,6.00
2018-01-26T23:44:26.937Z,6.00
2018-01-26T23:46:56.178Z,6.00
2018-01-26T23:49:25.571Z,6.00
2018-01-26T23:51:54.821Z,5.90
2018-01-26T23:54:24.151Z,5.90
2018-01-26T23:56:53.337Z,5.80
2018-01-26T23:59:22.648Z,5.70
